createdAt,value
2022-12-27T00:01:52.939Z,4.8
2022-12-27T00:04:22.806Z,3.72
2022-12-27T00:06:52.821Z,3.98
2022-12-27T00:09:22.835Z,5.18
2022-12-27T00:11:58.100Z,3.85
2022-12-27T00:14:22.899Z,5.81
2022-12-27T00:16:52.984Z,3.79
2022-12-27T00:19:22.939Z,3.78
2022-12-27T00:21:53.013Z,5.64
2022-12-27T00:26:53.040Z,6.04
2022-12-27T00:29:23.039Z,6.27
2022-12-27T00:31:53.091Z,5.67
2022-12-27T00:34:23.118Z,3.81
2022-12-27T00:39:23.135Z,4.51
2022-12-27T00:41:53.169Z,5.48
2022-12-27T00:44:23.193Z,11.38
2022-12-27T00:46:53.224Z,10.39
2022-12-27T00:49:23.241Z,6.08
2022-12-27T00:51:53.265Z,5.14
2022-12-27T00:54:23.298Z,5.07
2022-12-27T00:56:53.354Z,4.45
2022-12-27T00:59:23.326Z,3.67
2022-12-27T01:01:53.468Z,4.03
2022-12-27T01:04:23.374Z,4.4
2022-12-27T01:06:53.399Z,3.91
2022-12-27T01:11:53.433Z,4.3
2022-12-27T01:14:23.475Z,8.11
2022-12-27T01:24:23.595Z,5.12
2022-12-27T01:26:53.613Z,4.14
2022-12-27T01:29:23.605Z,4.99
2022-12-27T01:31:53.648Z,3.35
2022-12-27T01:34:23.660Z,4.65
2022-12-27T01:36:53.699Z,3.69
2022-12-27T01:41:53.736Z,3.74
2022-12-27T01:49:23.795Z,3.84
2022-12-27T01:54:23.867Z,3.83
2022-12-27T01:56:53.872Z,4.02
2022-12-27T01:59:23.891Z,6.49
2022-12-27T02:01:54.032Z,5.03
2022-12-27T02:04:23.965Z,4.96
2022-12-27T02:06:53.980Z,4.14
2022-12-27T02:11:54.036Z,7.12
2022-12-27T02:14:27.846Z,4.31
2022-12-27T02:16:54.112Z,5.09
2022-12-27T02:19:24.090Z,4.38
2022-12-27T02:24:24.152Z,3.87
2022-12-27T02:26:54.200Z,3.56
2022-12-27T02:29:24.174Z,6.08
2022-12-27T02:31:54.203Z,5.6
2022-12-27T02:39:24.280Z,4.64
2022-12-27T02:41:54.303Z,5.23
2022-12-27T02:46:54.353Z,8.55
2022-12-27T02:49:24.378Z,6.46
2022-12-27T02:51:54.397Z,5.99
2022-12-27T02:54:24.426Z,4.61
2022-12-27T03:01:54.626Z,3.75
2022-12-27T03:04:24.544Z,4.37
2022-12-27T03:06:54.558Z,3.18
2022-12-27T03:09:24.580Z,7.96
2022-12-27T03:11:54.595Z,7.16
2022-12-27T03:14:24.635Z,5.46
2022-12-27T03:16:54.658Z,6.74
2022-12-27T03:19:24.669Z,7.15
2022-12-27T03:24:24.726Z,7.79
2022-12-27T03:26:54.739Z,5.68
2022-12-27T03:29:24.753Z,7.83
2022-12-27T03:31:54.797Z,9.67
2022-12-27T03:34:24.809Z,9.21
2022-12-27T03:39:24.845Z,5.56
2022-12-27T03:44:24.930Z,3.34
2022-12-27T03:49:24.959Z,4.11
2022-12-27T03:51:54.962Z,5.78
2022-12-27T03:56:55.025Z,5.84
2022-12-27T03:59:25.077Z,4.46
2022-12-27T04:01:55.266Z,3.2
2022-12-27T04:04:25.089Z,3.55
2022-12-27T04:09:25.139Z,6.2
2022-12-27T04:11:55.159Z,5.89
2022-12-27T04:21:55.262Z,6.62
2022-12-27T04:26:55.310Z,8.77
2022-12-27T04:31:55.352Z,5.27
2022-12-27T04:34:25.383Z,5.04
2022-12-27T04:39:25.432Z,7.45
2022-12-27T04:41:55.485Z,6.72
2022-12-27T04:51:55.563Z,6.62
2022-12-27T04:54:25.582Z,5.39
2022-12-27T04:57:02.627Z,7.39
2022-12-27T04:59:25.643Z,5.58
2022-12-27T05:01:55.784Z,8.58
2022-12-27T05:04:25.662Z,6.34
2022-12-27T05:09:32.747Z,11.24
2022-12-27T05:11:55.743Z,11.91
2022-12-27T05:14:25.761Z,7.78
2022-12-27T05:19:25.809Z,5.52
2022-12-27T05:21:55.851Z,4.56
2022-12-27T05:24:25.859Z,6.31
2022-12-27T05:26:55.893Z,6.37
2022-12-27T05:36:56.006Z,4.98
2022-12-27T05:39:26.016Z,8.04
2022-12-27T05:49:26.096Z,5.18
2022-12-27T05:51:56.135Z,5.1
2022-12-27T05:56:56.191Z,6.1
2022-12-27T06:01:56.327Z,17.88
2022-12-27T06:04:26.240Z,11.42
2022-12-27T06:09:26.291Z,9.73
2022-12-27T06:11:56.316Z,9.73
2022-12-27T06:19:26.397Z,6.37
2022-12-27T06:21:56.391Z,4.56
2022-12-27T06:26:56.459Z,6.71
2022-12-27T06:31:56.578Z,5.55
2022-12-27T06:34:26.517Z,8.12
2022-12-27T06:39:26.592Z,15.59
2022-12-27T06:42:03.613Z,9.21
2022-12-27T06:44:26.616Z,10.08
2022-12-27T06:46:56.667Z,9.28
2022-12-27T06:56:56.769Z,7.16
2022-12-27T07:02:08.316Z,6.31
2022-12-27T07:04:38.104Z,5.62
2022-12-27T07:07:13.509Z,8.83
2022-12-27T07:09:38.181Z,6.71
2022-12-27T07:12:08.199Z,5.46
2022-12-27T07:14:38.218Z,7.14
2022-12-27T07:17:15.277Z,6.9
2022-12-27T07:19:45.303Z,6.74
2022-12-27T07:22:08.301Z,8.25
2022-12-27T07:24:38.295Z,9.4
2022-12-27T07:27:08.343Z,8.42
2022-12-27T07:29:45.063Z,7.59
2022-12-27T07:32:08.453Z,5.71
2022-12-27T07:34:38.439Z,6.77
2022-12-27T07:37:08.457Z,6.18
2022-12-27T07:39:38.455Z,8.01
2022-12-27T07:42:08.836Z,8.04
2022-12-27T07:47:08.532Z,5.44
2022-12-27T07:49:38.576Z,6.72
2022-12-27T07:52:08.584Z,9.67
2022-12-27T07:59:38.670Z,9.85
2022-12-27T08:02:08.750Z,16.31
2022-12-27T08:04:38.707Z,12.91
2022-12-27T08:07:08.717Z,15.7
2022-12-27T08:09:38.751Z,11.06
2022-12-27T08:12:08.775Z,7.88
2022-12-27T08:14:38.789Z,9.03
2022-12-27T08:17:08.890Z,6.6
2022-12-27T08:19:38.834Z,5.91
2022-12-27T08:24:38.905Z,6.5
2022-12-27T08:32:08.968Z,6.51
2022-12-27T08:34:38.982Z,8.14
2022-12-27T08:37:09.003Z,11.2
2022-12-27T08:39:39.066Z,9.26
2022-12-27T08:42:09.080Z,10.88
2022-12-27T08:47:09.132Z,9.51
2022-12-27T08:49:39.133Z,8.44
2022-12-27T08:52:09.166Z,6.34
2022-12-27T08:59:39.235Z,6.59
2022-12-27T09:02:09.380Z,6.3
2022-12-27T09:04:39.277Z,12.07
2022-12-27T09:07:09.290Z,9.4
2022-12-27T09:09:39.331Z,12.02
2022-12-27T09:12:09.595Z,14.33
2022-12-27T09:19:39.418Z,8.03
2022-12-27T09:22:09.456Z,10.17
2022-12-27T09:27:09.485Z,9.3
2022-12-27T09:29:44.592Z,13.47
2022-12-27T09:37:09.606Z,12.2
2022-12-27T09:39:39.610Z,16.55
2022-12-27T09:42:47.647Z,11.84
2022-12-27T09:49:39.706Z,9.24
2022-12-27T09:52:09.747Z,10.48
2022-12-27T09:54:39.744Z,8.8
2022-12-27T09:57:19.853Z,10.05
2022-12-27T10:05:17.920Z,12.21
2022-12-27T10:07:09.876Z,14.11
2022-12-27T10:09:39.907Z,10.72
2022-12-27T10:14:39.921Z,11.14
2022-12-27T10:19:40.007Z,9.52
2022-12-27T10:24:40.031Z,14.46
2022-12-27T10:29:47.111Z,14.44
2022-12-27T10:32:17.144Z,13.61
2022-12-27T10:34:40.130Z,14.76
2022-12-27T10:37:17.180Z,17.48
2022-12-27T10:39:40.191Z,19.01
2022-12-27T10:42:10.216Z,14.57
2022-12-27T10:47:10.314Z,14.7
2022-12-27T10:49:40.298Z,13.22
2022-12-27T10:52:10.332Z,14.86
2022-12-27T10:54:40.366Z,13.76
2022-12-27T11:04:40.413Z,14.02
2022-12-27T11:12:10.487Z,16.51
2022-12-27T11:14:40.485Z,14.15
2022-12-27T11:19:40.549Z,11.89
2022-12-27T11:22:10.579Z,12.15
2022-12-27T11:27:10.621Z,18.03
2022-12-27T11:29:40.676Z,15.92
2022-12-27T11:32:10.673Z,14.34
2022-12-27T11:34:40.691Z,16.68
2022-12-27T11:37:10.732Z,12.74
2022-12-27T11:39:40.744Z,12.9
2022-12-27T11:42:10.767Z,12.6
2022-12-27T11:44:40.772Z,20.89
2022-12-27T11:47:10.854Z,19.66
2022-12-27T11:49:40.842Z,13.22
2022-12-27T11:52:10.890Z,13.27
2022-12-27T11:54:40.920Z,13.02
2022-12-27T11:57:10.917Z,10.78
2022-12-27T11:59:40.943Z,9.03
2022-12-27T12:02:11.176Z,12.45
2022-12-27T12:04:41.008Z,10.65
2022-12-27T12:07:11.023Z,10.15
2022-12-27T12:09:41.018Z,17.46
2022-12-27T12:14:41.073Z,11.79
2022-12-27T12:19:41.123Z,9.98
2022-12-27T12:22:11.130Z,12.23
2022-12-27T12:24:41.172Z,10.18
2022-12-27T12:27:11.201Z,8.69
2022-12-27T12:29:41.198Z,8.88
2022-12-27T12:37:11.304Z,9.81
2022-12-27T12:39:48.336Z,9.29
2022-12-27T12:42:11.385Z,7.33
2022-12-27T12:44:41.879Z,6.11
2022-12-27T12:47:11.377Z,8.97
2022-12-27T12:49:41.401Z,8.03
2022-12-27T12:52:11.472Z,9.19
2022-12-27T12:54:41.456Z,11.25
2022-12-27T12:57:11.478Z,14.93
2022-12-27T12:59:41.483Z,9.87
2022-12-27T13:02:11.671Z,8.62
2022-12-27T13:04:41.555Z,8.55
2022-12-27T13:07:11.574Z,9.17
2022-12-27T13:12:11.608Z,6.35
2022-12-27T13:14:41.684Z,5.23
2022-12-27T13:17:11.651Z,4.82
2022-12-27T13:19:41.701Z,5.99
2022-12-27T13:22:11.712Z,4.99
2022-12-27T13:24:41.720Z,4.99
2022-12-27T13:27:11.746Z,7.55
2022-12-27T13:29:41.784Z,9.64
2022-12-27T13:32:11.811Z,7.58
2022-12-27T13:34:41.823Z,5.68
2022-12-27T13:37:11.868Z,5.37
2022-12-27T13:39:41.875Z,6.1
2022-12-27T13:42:11.924Z,5.49
2022-12-27T13:44:41.927Z,5.14
2022-12-27T13:47:11.969Z,6.56
2022-12-27T13:52:12.022Z,5.91
2022-12-27T13:54:42.010Z,5.37
2022-12-27T13:59:42.063Z,5.38
2022-12-27T14:04:42.127Z,4.82
2022-12-27T14:07:12.124Z,5.38
2022-12-27T14:09:42.166Z,5.67
2022-12-27T14:12:12.178Z,13.59
2022-12-27T14:14:42.205Z,10.01
2022-12-27T14:17:12.220Z,6.94
2022-12-27T14:19:42.277Z,7.35
2022-12-27T14:22:12.323Z,5.77
2022-12-27T14:24:42.296Z,4.44
2022-12-27T14:32:12.367Z,6.46
2022-12-27T14:34:42.407Z,8.61
2022-12-27T14:39:42.441Z,7.59
2022-12-27T14:42:12.449Z,5.89
2022-12-27T14:47:12.525Z,3.54
2022-12-27T14:49:42.528Z,4.22
2022-12-27T14:52:19.576Z,4.35
2022-12-27T14:54:42.591Z,4.19
2022-12-27T14:57:12.602Z,4.3
2022-12-27T15:07:16.974Z,10.27
2022-12-27T15:09:46.992Z,7.2
2022-12-27T15:12:17.028Z,5.29
2022-12-27T15:14:47.046Z,4.28
2022-12-27T15:17:17.068Z,4.55
2022-12-27T15:19:47.103Z,4.78
2022-12-27T15:24:47.153Z,7.29
2022-12-27T15:27:19.943Z,6.55
2022-12-27T15:29:47.191Z,4.95
2022-12-27T15:32:17.210Z,5.57
2022-12-27T15:34:47.256Z,5.07
2022-12-27T15:37:17.296Z,4.78
2022-12-27T15:39:47.295Z,4.15
2022-12-27T15:42:17.361Z,3.72
2022-12-27T15:44:47.326Z,4.94
2022-12-27T15:47:17.337Z,5.87
2022-12-27T15:54:53.271Z,6.35
2022-12-27T15:57:17.464Z,8.26
2022-12-27T16:02:17.745Z,8.58
2022-12-27T16:09:47.611Z,4.62
2022-12-27T16:12:17.604Z,4.11
2022-12-27T16:17:17.640Z,4.12
2022-12-27T16:19:47.676Z,3.64
2022-12-27T16:22:17.710Z,5.9
2022-12-27T16:29:47.757Z,5.45
2022-12-27T16:32:17.789Z,5.85
2022-12-27T16:37:17.816Z,5.8
2022-12-27T16:39:47.893Z,5.19
2022-12-27T16:42:17.893Z,5.91
2022-12-27T16:44:47.887Z,5.57
2022-12-27T16:49:47.953Z,6.42
2022-12-27T16:54:47.998Z,4.5
2022-12-27T16:57:19.894Z,4.11
2022-12-27T16:59:48.039Z,3.99
2022-12-27T17:02:18.124Z,4.92
2022-12-27T17:07:18.127Z,7.93
2022-12-27T17:09:48.132Z,7.99
2022-12-27T17:12:18.142Z,11.63
2022-12-27T17:14:48.292Z,8.4
2022-12-27T17:19:48.232Z,7.12
2022-12-27T17:22:18.249Z,7.15
2022-12-27T17:24:48.288Z,12.64
2022-12-27T17:27:18.316Z,8.64
2022-12-27T17:29:48.314Z,7.04
2022-12-27T17:34:48.390Z,7.45
2022-12-27T17:37:18.410Z,5.31
2022-12-27T17:39:48.430Z,5.31
2022-12-27T17:42:18.445Z,7.28
2022-12-27T17:47:18.491Z,4.33
2022-12-27T17:49:48.528Z,5
2022-12-27T17:54:48.615Z,5.94
2022-12-27T17:57:18.585Z,8.2
2022-12-27T17:59:48.601Z,8.84
2022-12-27T18:02:18.833Z,6.56
2022-12-27T18:07:18.670Z,4.25
2022-12-27T18:09:48.680Z,7.62
2022-12-27T18:12:18.721Z,7.43
2022-12-27T18:14:48.756Z,6.42
2022-12-27T18:17:22.493Z,4.17
2022-12-27T18:19:48.828Z,6.74
2022-12-27T18:22:18.805Z,4.22
2022-12-27T18:27:18.862Z,7.95
2022-12-27T18:29:48.897Z,5.57
2022-12-27T18:39:48.960Z,4.94
2022-12-27T18:42:19.047Z,3.4
2022-12-27T18:44:49.054Z,4.11
2022-12-27T18:47:19.060Z,5.93
2022-12-27T18:49:49.073Z,4.34
2022-12-27T18:52:19.117Z,8.6
2022-12-27T18:54:49.148Z,6.59
2022-12-27T18:57:19.129Z,5.77
2022-12-27T19:02:19.316Z,4.64
2022-12-27T19:04:49.222Z,5.05
2022-12-27T19:07:19.227Z,5.63
2022-12-27T19:12:19.281Z,9.81
2022-12-27T19:14:49.302Z,8.82
2022-12-27T19:19:49.417Z,5.71
2022-12-27T19:22:19.390Z,5.81
2022-12-27T19:24:49.405Z,5.52
2022-12-27T19:27:19.426Z,5.06
2022-12-27T19:29:49.472Z,4.23
2022-12-27T19:32:19.517Z,2.8
2022-12-27T19:34:49.546Z,4.06
2022-12-27T19:37:19.554Z,4.15
2022-12-27T19:39:49.547Z,3.04
2022-12-27T19:44:49.597Z,5.3
2022-12-27T19:47:19.631Z,4.69
2022-12-27T19:49:49.631Z,3.91
2022-12-27T19:52:19.648Z,4.55
2022-12-27T19:54:49.700Z,3.78
2022-12-27T19:57:19.789Z,4.58
2022-12-27T19:59:49.735Z,5.93
2022-12-27T20:02:19.847Z,5.53
2022-12-27T20:04:49.793Z,6.46
2022-12-27T20:07:19.817Z,3.99
2022-12-27T20:09:49.811Z,3.86
2022-12-27T20:12:19.852Z,2.76
2022-12-27T20:17:19.910Z,6.41
2022-12-27T20:19:49.930Z,4.56
2022-12-27T20:22:19.967Z,4.09
2022-12-27T20:24:49.965Z,3.71
2022-12-27T20:27:19.979Z,4.75
2022-12-27T20:29:50.030Z,5.84
2022-12-27T20:32:20.152Z,4.57
2022-12-27T20:34:50.106Z,3.61
2022-12-27T20:39:50.131Z,3.08
2022-12-27T20:44:50.149Z,3.54
2022-12-27T20:47:20.185Z,2.8
2022-12-27T20:49:50.236Z,6.26
2022-12-27T20:52:24.290Z,5.33
2022-12-27T20:57:20.279Z,3.61
2022-12-27T21:04:50.366Z,8.31
2022-12-27T21:07:20.400Z,10.62
2022-12-27T21:09:50.401Z,7.38
2022-12-27T21:14:50.461Z,5.55
2022-12-27T21:17:20.459Z,5.59
2022-12-27T21:19:50.505Z,4.91
2022-12-27T21:22:20.505Z,4.1
2022-12-27T21:27:20.574Z,10.02
2022-12-27T21:29:50.585Z,9.3
2022-12-27T21:32:20.608Z,6.31
2022-12-27T21:37:20.674Z,4.95
2022-12-27T21:39:50.684Z,6.29
2022-12-27T21:42:20.700Z,4.38
2022-12-27T21:47:20.778Z,10.91
2022-12-27T21:49:50.776Z,7.03
2022-12-27T21:52:20.818Z,4.35
2022-12-27T21:57:20.857Z,3.72
2022-12-27T21:59:50.874Z,2.94
2022-12-27T22:02:21.002Z,2.83
2022-12-27T22:07:20.937Z,9.97
2022-12-27T22:09:50.948Z,7.38
2022-12-27T22:12:21.011Z,5.45
2022-12-27T22:14:51.015Z,3.98
2022-12-27T22:17:21.021Z,4.79
2022-12-27T22:22:21.078Z,2.97
2022-12-27T22:24:51.089Z,2.65
2022-12-27T22:27:21.119Z,3.02
2022-12-27T22:32:21.173Z,2.55
2022-12-27T22:34:51.197Z,2.7
2022-12-27T22:37:21.228Z,2.93
2022-12-27T22:39:51.259Z,5.59
2022-12-27T22:42:21.266Z,4.08
2022-12-27T22:44:51.280Z,3.68
2022-12-27T22:47:26.902Z,4.03
2022-12-27T22:49:51.339Z,5.43
2022-12-27T22:52:21.382Z,4.28
2022-12-27T22:55:05.210Z,3.65
2022-12-27T22:57:21.432Z,3.77
2022-12-27T23:02:21.701Z,5.76
2022-12-27T23:07:21.512Z,4.25
2022-12-27T23:09:51.578Z,3.22
2022-12-27T23:12:21.568Z,3.49
2022-12-27T23:17:21.633Z,3.04
2022-12-27T23:19:51.642Z,3.49
2022-12-27T23:22:21.664Z,3.5
2022-12-27T23:24:51.660Z,3.41
2022-12-27T23:27:21.711Z,4
2022-12-27T23:29:51.733Z,5.09
2022-12-27T23:32:21.735Z,6.03
2022-12-27T23:34:51.805Z,5.17
2022-12-27T23:39:51.820Z,3.39
2022-12-27T23:44:51.879Z,3.57
2022-12-27T23:47:21.920Z,4.87
2022-12-27T23:49:51.907Z,4.53
2022-12-27T23:52:21.938Z,4.9
2022-12-27T23:54:51.977Z,5.71
